Aktualny czas
EPWA METAR
  • EPWA 231000Z 11016KT CAVOK 09/M03 Q1023 NOSIG
Statystyki
  • 48Piloci
  • 6341Wykonane loty*
  • 24685:46:00Wylatane godziny*
  • 0Loty w dniu dzisiejszym
  • *łącznie z przeniesionymi z poprzedniego systemu
O nas

Polskie Linie Lotnicze LOT Virtual stanowią ekwiwalent Polskich Linii Lotniczych LOT w wirtualnej przestrzeni powietrznej VATSIM. Linia należy do wirtualnego sojuszu Star Alliance zrzeszającego ponad 20 wirtualnych linii lotniczych z całego świata. Dokładamy wszelkich starań, aby wirtualni piloci mogli poczuć, choć namiastkę prawdziwej pracy pilota samolotów pasażerskich. Nasza kadra szkoleniowa składa się z doświadczonych pilotów, którzy posiadają w swoim doświadczeniu lotniczym nie tylko mnóstwo wylatanych godzin, ale także wiele oblatanych typów statków powietrznych. Materiały szkoleniowe stosowane podczas prowadzonych kursów Type Rating są opracowywane na podstawie doświadczeń i konsultacji z prawdziwymi pilotami latającymi samolotami pasażerskimi na całym świecie.


logo



Ostatnie loty
Pilot Flight Number Departure Arrival Status Altitude Speed Distance/Time Remain
Airline Flight Departure Arrival Duration Pilot Landing Aircraft
PCH 932R LEPA EPRZ 02.26 LOT0005 -154 737-800
PCH 916 EPMO LEPA 03.09 LOT0005 -457 737-800
PCH 942 EDDS LEPA 01.47 LOT0004 -175 737-800
LOT 787 EPWA EETN 01.16 LOT0008 -58 ERJ 170-200
LOT 313 EPWA EDDS 01.37 LOT0002 -198 737-800
Airline Flight Departure Arrival Aircraft
No Flights in Progress!